Aneth, Utah
Current Conditions -  °F | °C
As of 7:35 PM on Friday 28 Nov 2014 (Local Time) from KBDG Reporting Station
Clear Clear  
Wind Chill: -2°   Ceiling: Unl
Heat Index:   Visibility: 10mi
Dew Point: -8°   Wind: 7mph
Humidity: 51%   Direction: 350°N
Pressure: 30.12"   Gusts: NA
Location:  37.22°N, 109.19°W
Report Text: KBDG 290235Z AUTO 35006KT 10SM CLR 01/M08 A3012 RMK AO1 T00141077
Loading
Personal Weather Stations






























Interactive Weather Map New forecast layout! Learn more

10-Day Weather Forecast

Advertisements
Track Severe Weather on mobile